Craig Springs, Mississippi
Current Conditions -  °F | °C
As of 3:35 PM on Thursday 23 Oct 2014 (Local Time) from KSTF Reporting Station
Clear Clear  
Wind Chill: 64°   Ceiling: Unl
Heat Index: 64°   Visibility: 10mi
Dew Point: 43°   Wind: 5mph
Humidity: 45%   Direction: 290°WNW
Pressure: 30.1"   Gusts: NA
Location:  33.3677°N, 89.0513°W
Report Text: KSTF 232035Z AUTO 29004KT 10SM CLR 18/06 A3010 RMK AO2
Loading
Personal Weather Stations






























Interactive Weather Map
Tropical Storm Tracking
New forecast layout! Learn more

10-Day Weather Forecast

Advertisements
Track Severe Weather on mobile